Yamaguchi, Japan
Current Conditions -  °F | °C
As of 9:00 PM on Friday 19 Dec 2014 (Local Time) from RJDC Reporting Station
Broken Clouds Broken Clouds  
Wind Chill: 40°   Ceiling: 5000
Heat Index: 46°   Visibility: 6mi
Dew Point: 37°   Wind: 15mph
Humidity: 71%   Direction: 70°ENE
Pressure: 30.3"   Gusts: NA
Location:  34.18°N, 131.48°E
Report Text: RJDC 191200Z 07013KT 9999 FEW025 BKN050 BKN070 08/03 Q1026
Loading
Personal Weather Stations






























Interactive Weather Map New forecast layout! Learn more

10-Day Weather Forecast

Advertisements
Track Severe Weather on mobile